Mountain Home Air Force Base
KMUO : rendu visible

Aérodrome :











RETROUVEZ-NOUS SUR...

 
LOGIN :

S'inscrire | Disclaimer

   EN    FR    IT 

 









Légende :    VFR   VFR Marginal   IFR   IFR Intensif   IFR Très Intensif
Visi : 
Plafond : 
>= 8 km
>= 3000ft
5 à 8 km
1000 à 3000 ft
1500m à 5 km
500 à 1000 ft
800 à 1500m
200 à 500 ft
< 800m
< 200 ft
Symboles :   Orages  Brouillard  Fortes neiges  Fortes précipitations  Vent > 20 kt






- Altitude de l'aérodrome : 2996 ft


KMUO - Mountain Home Air Force Base

DERNIER METAR :
  • 082158Z AUTO 31012KT 10SM FEW200 27/04 A2997 RMK AO2 SLP128 T02710035

METARs EXPIRÉS :
  • 082107Z AUTO 32012G19KT 10SM CLR 26/04 A2999 RMK AO2 WSHFT 02 SLP136
  • 082058Z AUTO 31007KT 10SM FEW200 27/03 A2999 RMK AO2 SLP135 T02660031 57019
  • 081958Z AUTO 30008KT 10SM FEW200 25/03 A3001 RMK AO2 SLP143 T02500030

TAF TAF KMUO
Valide du 08 à 18h jusqu'au 10 à 00h UTC


081800Z 0818/0924 32012G18KT 9999 SKC QNH2989INS
BECMG 0902/0903 31009KT 9999 SKC QNH2989INS
BECMG 0905/0906 VRB06KT 9999 SKC QNH2984INS
BECMG 0920/0921 32009KT 9999 FEW100 FEW200 QNH2978INS TX28/0823Z TN10/0912Z
FIR KZLC / Amérique du Nord



MET'MAP, la Météo Aéronautique d'un coup d'oeil ! - Copyright ORBIFLY Décembre 2007 - Disclaimer

ORBIFLY MET'MAP TEAM :

Programmation & Développement : Alexandra Zaïnal
Sur une idée originale de : Baudouin d'Aumeries
Assistance à la programmation : Marc-Olivier Méhu
Soutien technique & logistique : Manuel Goepfert

Contact : metmap@orbifly.com




SOURCES & CREDITS :

   NOAA       Earth
Advisory